Time;durP1;ratioP1;P1;durP2;ratioP2;P2;SDS_P1;SDS_P2;PMS_P1;PMS_P2;Temp;Humidity;BMP_temperature;BMP_pressure;BME280_temperature;BME280_humidity;BME280_pressure;Samples;Min_cycle;Max_cycle;Signal;HPM_P1;HPM_P2
2022/01/02 00:00:17;;;;;;;25.50;13.00;;;;;;;3.69;73.80;102432.97;5028755;28;20123;-70
2022/01/02 00:02:49;;;;;;;20.00;14.05;;;;;;;3.69;73.75;102431.22;5023082;28;20095;-72
2022/01/02 00:05:20;;;;;;;17.55;12.80;;;;;;;3.70;73.54;102424.31;5032043;28;20049;-73
2022/01/02 00:08:02;;;;;;;19.55;12.70;;;;;;;3.66;73.85;102427.81;5031871;28;20053;-71
2022/01/02 00:10:34;;;;;;;31.00;13.23;;;;;;;3.57;73.70;102431.25;5032075;28;20046;-73
2022/01/02 00:13:01;;;;;;;14.80;12.23;;;;;;;3.63;73.92;102427.78;5031947;28;20050;-73
2022/01/02 00:15:29;;;;;;;18.50;12.48;;;;;;;3.60;73.70;102426.91;5031809;28;20376;-73
2022/01/02 00:17:59;;;;;;;21.40;12.35;;;;;;;3.54;73.75;102420.84;5031922;28;20208;-73
2022/01/02 00:20:35;;;;;;;18.02;12.52;;;;;;;3.55;73.65;102423.44;5031700;28;20560;-74
2022/01/02 00:23:08;;;;;;;21.30;12.70;;;;;;;3.60;73.57;102420.88;5032044;28;20045;-73
2022/01/02 00:25:40;;;;;;;24.75;14.27;;;;;;;3.59;73.41;102420.00;5031245;28;20050;-73
2022/01/02 00:28:07;;;;;;;21.27;14.18;;;;;;;3.59;73.63;102413.94;5031786;28;20049;-73
2022/01/02 00:30:40;;;;;;;15.90;13.52;;;;;;;3.63;73.66;102414.81;5032104;28;20080;-70
2022/01/02 00:33:08;;;;;;;22.30;13.98;;;;;;;3.63;73.47;102417.41;5031768;28;20049;-73
2022/01/02 00:35:36;;;;;;;28.40;13.60;;;;;;;3.57;73.19;102413.94;5031698;28;20049;-72
2022/01/02 00:38:04;;;;;;;19.13;13.15;;;;;;;3.57;73.15;102415.69;5031655;28;20049;-69
2022/01/02 00:40:34;;;;;;;15.52;13.25;;;;;;;3.57;73.10;102413.94;5035597;28;20115;-73
2022/01/02 00:43:04;;;;;;;16.05;13.18;;;;;;;3.54;73.15;102413.06;5034440;28;20103;-73
2022/01/02 00:45:40;;;;;;;16.40;13.32;;;;;;;3.49;73.03;102414.81;5035614;28;20042;-74
2022/01/02 00:48:19;;;;;;;16.38;12.70;;;;;;;3.49;72.97;102417.41;5034935;28;20061;-73
2022/01/02 00:51:05;;;;;;;19.48;13.15;;;;;;;3.45;73.19;102418.28;5035212;28;20088;-68
2022/01/02 00:53:35;;;;;;;15.52;12.70;;;;;;;3.48;73.05;102419.16;5035076;28;20041;-72
2022/01/02 00:56:02;;;;;;;16.35;12.82;;;;;;;3.50;73.02;102429.53;5035311;28;20053;-71
2022/01/02 00:58:49;;;;;;;19.15;13.55;;;;;;;3.48;73.00;102426.03;5035195;28;20049;-73
2022/01/02 01:01:22;;;;;;;23.45;14.13;;;;;;;3.45;72.85;102434.69;5033347;28;20411;-72
2022/01/02 01:03:52;;;;;;;19.35;13.25;;;;;;;3.46;72.74;102440.78;5034955;28;20045;-72
2022/01/02 01:06:23;;;;;;;22.35;13.25;;;;;;;3.42;73.04;102438.16;5035022;28;20076;-68
2022/01/02 01:08:56;;;;;;;19.10;13.18;;;;;;;3.48;72.95;102442.50;5034735;28;20084;-72
2022/01/02 01:11:26;;;;;;;18.10;13.25;;;;;;;3.49;72.61;102435.56;5035084;28;20037;-73
2022/01/02 01:13:54;;;;;;;19.83;14.02;;;;;;;3.50;72.95;102438.16;5034733;28;20049;-68
2022/01/02 01:16:21;;;;;;;21.45;13.63;;;;;;;3.50;72.69;102432.13;5034686;28;20553;-72
2022/01/02 01:18:49;;;;;;;17.98;13.25;;;;;;;3.53;72.95;102440.78;5033782;28;20072;-69
2022/01/02 01:21:16;;;;;;;17.20;13.75;;;;;;;3.49;72.95;102435.56;5034815;28;20095;-68
2022/01/02 01:23:43;;;;;;;21.95;13.75;;;;;;;3.52;73.04;102438.19;5034908;28;20496;-72
2022/01/02 01:26:11;;;;;;;20.83;13.50;;;;;;;3.48;73.01;102439.03;5034791;28;20053;-73
2022/01/02 01:28:37;;;;;;;17.83;12.82;;;;;;;3.47;73.01;102440.75;5034719;28;20565;-67
2022/01/02 01:31:04;;;;;;;21.95;13.32;;;;;;;3.47;73.15;102438.16;5034700;28;20046;-74
2022/01/02 01:33:31;;;;;;;24.63;14.07;;;;;;;3.45;72.97;102434.69;5034031;28;20049;-73
2022/01/02 01:35:57;;;;;;;20.90;13.25;;;;;;;3.47;73.17;102437.31;5034567;28;20045;-72
2022/01/02 01:38:24;;;;;;;19.40;13.60;;;;;;;3.48;73.30;102436.44;5034124;28;20508;-74
2022/01/02 01:41:14;;;;;;;20.77;13.32;;;;;;;3.47;73.00;102421.75;5034151;28;20049;-74
2022/01/02 01:43:53;;;;;;;20.67;13.30;;;;;;;3.47;73.04;102419.16;5022864;28;20115;-74
2022/01/02 01:46:20;;;;;;;19.95;13.48;;;;;;;3.46;73.34;102410.47;5034441;28;20411;-73
2022/01/02 01:48:51;;;;;;;17.55;12.65;;;;;;;3.42;73.22;102404.41;5033266;28;20050;-68
2022/01/02 01:51:18;;;;;;;21.88;12.95;;;;;;;3.46;73.01;102407.03;5033575;28;20119;-74
2022/01/02 01:53:45;;;;;;;17.58;12.60;;;;;;;3.42;72.99;102396.63;5034121;28;20132;-72
2022/01/02 01:56:11;;;;;;;17.25;12.90;;;;;;;3.41;73.16;102399.25;5034206;28;20045;-74
2022/01/02 01:58:38;;;;;;;15.43;12.23;;;;;;;3.38;73.23;102394.91;5034041;28;20122;-74
2022/01/02 02:01:04;;;;;;;20.30;12.95;;;;;;;3.35;73.30;102397.53;5034025;28;20057;-74
2022/01/02 02:03:31;;;;;;;17.08;11.35;;;;;;;3.33;73.32;102399.25;5033979;28;20037;-69
2022/01/02 02:05:58;;;;;;;17.98;11.60;;;;;;;3.33;72.97;102395.78;5032809;28;20496;-73
2022/01/02 02:08:26;;;;;;;14.43;12.23;;;;;;;3.32;73.01;102397.50;5033659;28;20046;-70
2022/01/02 02:10:56;;;;;;;14.70;11.98;;;;;;;3.31;72.94;102394.91;5033961;28;20096;-73
2022/01/02 02:13:25;;;;;;;14.43;11.68;;;;;;;3.30;72.70;102388.00;5033924;28;20442;-72
2022/01/02 02:15:52;;;;;;;16.95;12.88;;;;;;;3.31;73.04;102385.38;5033829;28;20488;-74
2022/01/02 02:18:19;;;;;;;15.63;11.75;;;;;;;3.34;72.47;102384.53;5033726;28;20049;-73
2022/01/02 02:20:45;;;;;;;17.17;11.73;;;;;;;3.30;72.75;102390.59;5033355;28;20096;-73
2022/01/02 02:23:14;;;;;;;16.20;11.85;;;;;;;3.29;72.76;102386.25;5033045;28;20454;-73
2022/01/02 02:25:42;;;;;;;20.33;12.02;;;;;;;3.28;72.55;102382.81;5033527;28;20053;-68
2022/01/02 02:28:16;;;;;;;21.25;12.98;;;;;;;3.33;72.62;102382.81;5019728;28;20407;-74
2022/01/02 02:30:45;;;;;;;16.17;13.43;;;;;;;3.34;72.66;102389.72;5033716;28;20053;-74
2022/01/02 02:33:13;;;;;;;17.35;12.45;;;;;;;3.31;72.82;102394.91;5033575;28;20050;-73
2022/01/02 02:35:41;;;;;;;17.27;12.13;;;;;;;3.29;72.68;102401.81;5033556;28;20076;-74
2022/01/02 02:38:10;;;;;;;17.67;11.75;;;;;;;3.22;72.67;102403.56;5032968;28;20061;-74
2022/01/02 02:40:38;;;;;;;12.57;11.27;;;;;;;3.27;72.57;102407.88;5032243;28;20041;-73
2022/01/02 02:43:19;;;;;;;17.75;12.32;;;;;;;3.12;72.89;102422.56;5033289;28;20053;-73
2022/01/02 02:51:26;;;;;;;;;;;;;;;2.96;73.34;102429.44;5033655;28;20045;-74
2022/01/02 02:53:53;;;;;;;24.35;11.85;;;;;;;2.96;72.95;102429.44;5032948;28;19921;-73
2022/01/02 02:56:24;;;;;;;16.25;12.35;;;;;;;2.99;72.97;102432.91;5031920;28;20049;-68
2022/01/02 02:58:56;;;;;;;13.05;11.55;;;;;;;2.92;73.24;102432.03;5033055;28;20042;-74
2022/01/02 03:01:25;;;;;;;20.23;11.98;;;;;;;2.80;73.29;102428.53;5033046;28;20091;-74
2022/01/02 03:03:52;;;;;;;19.08;11.68;;;;;;;2.74;73.24;102429.38;5033032;28;20049;-74
2022/01/02 03:06:19;;;;;;;15.02;11.23;;;;;;;2.59;73.80;102427.59;5033114;28;20053;-73
2022/01/02 03:08:47;;;;;;;17.50;11.48;;;;;;;2.53;73.75;102419.81;5032510;28;20415;-68
2022/01/02 03:11:19;;;;;;;15.40;11.23;;;;;;;2.51;73.86;102409.41;5033062;28;20411;-68
2022/01/02 03:13:48;;;;;;;15.77;11.10;;;;;;;2.49;73.90;102402.50;5031476;28;20458;-67
2022/01/02 03:16:16;;;;;;;20.58;11.57;;;;;;;2.51;73.83;102398.19;5032961;28;20045;-74
2022/01/02 03:18:43;;;;;;;24.63;11.77;;;;;;;2.49;73.93;102399.91;5032770;28;20502;-74
2022/01/02 03:21:11;;;;;;;16.30;11.07;;;;;;;2.55;73.86;102399.94;5032471;28;20099;-71
2022/01/02 03:23:38;;;;;;;17.95;11.57;;;;;;;2.55;73.54;102399.94;5032797;28;20049;-73
2022/01/02 03:26:05;;;;;;;19.42;11.15;;;;;;;2.57;73.84;102399.09;5032220;28;20065;-70
2022/01/02 03:28:32;;;;;;;13.57;11.05;;;;;;;2.64;73.72;102396.50;5032592;28;20049;-74
2022/01/02 03:30:58;;;;;;;18.35;11.85;;;;;;;2.60;73.97;102396.53;5031350;28;20443;-74
2022/01/02 03:33:25;;;;;;;14.55;10.85;;;;;;;2.65;74.26;102396.50;5032727;28;20049;-74
2022/01/02 03:35:52;;;;;;;15.77;10.77;;;;;;;2.66;73.84;102395.66;5032308;28;20049;-70
2022/01/02 03:38:18;;;;;;;20.90;10.80;;;;;;;2.59;74.15;102387.00;5032207;28;20072;-73
2022/01/02 03:40:45;;;;;;;13.32;9.90;;;;;;;2.66;73.93;102387.88;5032329;28;20054;-70
2022/01/02 03:43:12;;;;;;;12.60;10.27;;;;;;;2.66;74.09;102379.25;5032440;28;20049;-74
2022/01/02 03:45:38;;;;;;;16.85;10.90;;;;;;;2.68;73.76;102381.00;5032378;28;20041;-73
2022/01/02 03:48:05;;;;;;;15.45;10.52;;;;;;;2.65;73.87;102378.38;5031060;28;20141;-74
2022/01/02 03:50:32;;;;;;;16.92;11.23;;;;;;;2.72;73.50;102380.13;5032271;28;20048;-74
2022/01/02 03:52:58;;;;;;;20.90;11.13;;;;;;;2.63;73.58;102387.88;5032044;28;20045;-73
2022/01/02 03:55:25;;;;;;;12.45;10.43;;;;;;;2.73;73.38;102387.03;5032225;28;20049;-74
2022/01/02 03:57:52;;;;;;;17.85;11.80;;;;;;;2.65;73.50;102391.31;5032059;28;20080;-74
2022/01/02 04:00:19;;;;;;;16.38;10.45;;;;;;;2.65;73.70;102391.31;5031998;28;20049;-74
2022/01/02 04:02:46;;;;;;;15.90;11.15;;;;;;;2.67;73.76;102387.03;5029136;28;20037;-71
2022/01/02 04:05:15;;;;;;;17.60;10.70;;;;;;;2.72;73.36;102384.47;5028214;28;20422;-73
2022/01/02 04:07:42;;;;;;;13.25;11.07;;;;;;;2.78;73.12;102382.75;5028612;28;20053;-71
2022/01/02 04:10:12;;;;;;;15.85;12.07;;;;;;;2.82;73.01;102373.25;5028637;28;20131;-67
2022/01/02 04:12:40;;;;;;;13.98;11.20;;;;;;;2.83;73.24;102368.91;5028610;28;20049;-73
2022/01/02 04:15:09;;;;;;;17.20;12.25;;;;;;;2.81;73.07;102365.47;5032633;28;20049;-73
2022/01/02 04:17:36;;;;;;;21.15;11.65;;;;;;;2.85;73.05;102375.84;5032864;28;20053;-70
2022/01/02 04:20:05;;;;;;;15.27;11.65;;;;;;;2.83;73.06;102381.88;5031881;28;20112;-71
2022/01/02 04:22:32;;;;;;;13.63;11.50;;;;;;;2.87;73.13;102378.41;5032457;28;20049;-67
2022/01/02 04:24:59;;;;;;;15.23;11.73;;;;;;;2.85;73.04;102367.19;5032675;28;20095;-67
2022/01/02 04:27:26;;;;;;;19.67;11.50;;;;;;;2.73;73.21;102358.53;5032725;28;20549;-74
2022/01/02 04:29:52;;;;;;;15.30;11.88;;;;;;;2.71;73.30;102343.84;5032160;28;20107;-68
2022/01/02 04:32:19;;;;;;;19.75;12.27;;;;;;;2.76;73.16;102342.97;5032374;28;20053;-73
2022/01/02 04:34:46;;;;;;;21.95;11.70;;;;;;;2.69;72.91;102350.75;5032468;28;20095;-68
2022/01/02 04:37:13;;;;;;;17.80;12.80;;;;;;;2.71;73.07;102336.06;5031440;28;20084;-74
2022/01/02 04:39:40;;;;;;;19.10;11.32;;;;;;;2.78;72.94;102330.91;5031754;28;20064;-68
2022/01/02 04:42:07;;;;;;;13.40;11.80;;;;;;;2.78;72.66;102328.31;5031718;28;20503;-74
2022/01/02 04:44:34;;;;;;;14.13;12.13;;;;;;;2.78;72.66;102319.63;5032285;28;20103;-68
2022/01/02 04:47:01;;;;;;;12.75;11.35;;;;;;;2.74;72.72;102315.31;5032356;28;20499;-67
2022/01/02 04:49:28;;;;;;;15.65;11.57;;;;;;;2.67;72.97;102306.69;5032324;28;20626;-74
2022/01/02 04:51:55;;;;;;;15.65;11.60;;;;;;;2.67;72.95;102308.41;5030545;28;20042;-67
2022/01/02 04:54:23;;;;;;;17.17;11.98;;;;;;;2.68;72.82;102318.78;5032066;28;20626;-73
2022/01/02 04:56:50;;;;;;;20.23;12.02;;;;;;;2.66;72.53;102312.72;5032072;28;20050;-74
2022/01/02 04:59:16;;;;;;;20.98;11.93;;;;;;;2.65;72.44;102313.56;5031902;28;20084;-68
2022/01/02 05:01:43;;;;;;;17.13;12.43;;;;;;;2.67;72.41;102317.03;5031858;28;20511;-71
2022/01/02 05:04:11;;;;;;;15.00;12.20;;;;;;;2.71;72.56;102323.97;5032068;28;20049;-74
2022/01/02 05:06:38;;;;;;;16.77;11.95;;;;;;;2.72;72.35;102322.25;5031765;28;20045;-74
2022/01/02 05:09:05;;;;;;;18.20;12.13;;;;;;;2.66;72.48;102314.47;5030693;28;20049;-73
2022/01/02 05:11:32;;;;;;;23.00;12.70;;;;;;;2.66;72.55;102317.91;5032084;28;20123;-73
2022/01/02 05:13:58;;;;;;;20.73;11.48;;;;;;;2.63;72.83;102322.22;5031710;28;20103;-68
2022/01/02 05:16:25;;;;;;;20.85;11.73;;;;;;;2.63;72.75;102314.44;5032010;28;20045;-74
2022/01/02 05:18:52;;;;;;;15.68;12.27;;;;;;;2.59;72.74;102314.44;5031164;28;20049;-73
2022/01/02 05:21:18;;;;;;;28.52;11.77;;;;;;;2.54;72.81;102331.72;5031616;28;20492;-68
2022/01/02 05:23:45;;;;;;;13.75;11.32;;;;;;;2.51;73.14;102331.69;5031485;28;20045;-69
2022/01/02 05:26:11;;;;;;;17.38;11.07;;;;;;;2.53;72.92;102329.13;5027777;28;20045;-71
2022/01/02 05:28:38;;;;;;;20.65;14.40;;;;;;;2.52;72.79;102325.66;5030380;28;20061;-73
2022/01/02 05:31:09;;;;;;;18.73;12.82;;;;;;;2.51;72.63;102323.91;5030462;28;20053;-73
2022/01/02 05:33:39;;;;;;;18.52;13.05;;;;;;;2.44;72.95;102320.44;5030989;28;20048;-73
2022/01/02 05:36:06;;;;;;;15.43;11.20;;;;;;;2.44;72.85;102324.78;5031122;28;20534;-68
2022/01/02 05:38:32;;;;;;;12.93;10.00;;;;;;;2.37;72.90;102328.19;5030687;28;20053;-72
2022/01/02 05:40:59;;;;;;;15.00;10.38;;;;;;;2.31;73.08;102330.75;5029998;28;20053;-74
2022/01/02 05:43:26;;;;;;;24.50;9.82;;;;;;;2.20;73.05;102326.41;5017190;28;20054;-73
2022/01/02 05:45:53;;;;;;;13.07;10.55;;;;;;;2.14;73.57;102339.34;5031264;28;20045;-68
2022/01/02 05:48:19;;;;;;;15.20;11.30;;;;;;;2.13;73.27;102337.59;5031007;28;20120;-73
2022/01/02 05:50:46;;;;;;;20.77;10.73;;;;;;;2.16;73.40;102339.34;5030573;28;20065;-67
2022/01/02 05:53:13;;;;;;;19.42;11.18;;;;;;;2.22;73.04;102336.78;5030698;28;20049;-68
2022/01/02 05:55:43;;;;;;;14.05;10.88;;;;;;;2.22;73.01;102336.78;5030803;28;20049;-72
2022/01/02 05:58:10;;;;;;;18.98;12.25;;;;;;;2.25;72.99;102336.81;5029732;28;20048;-73
2022/01/02 06:00:36;;;;;;;22.13;12.90;;;;;;;2.18;73.32;102340.22;5030957;28;20414;-73
2022/01/02 06:03:03;;;;;;;14.75;12.73;;;;;;;2.16;73.32;102341.91;5030646;28;20049;-69
2022/01/02 06:05:30;;;;;;;29.45;13.30;;;;;;;2.06;73.16;102322.91;5030723;28;20076;-71
2022/01/02 06:07:56;;;;;;;17.10;12.90;;;;;;;2.10;73.59;102330.69;5030783;28;20446;-74
2022/01/02 06:10:23;;;;;;;18.70;14.57;;;;;;;2.23;73.24;102328.16;5030212;28;20050;-73
2022/01/02 06:12:50;;;;;;;26.65;14.68;;;;;;;2.08;73.13;102331.53;5029508;28;20100;-72
2022/01/02 06:15:16;;;;;;;21.88;13.98;;;;;;;2.17;73.42;102333.31;5030422;28;20045;-71
2022/01/02 06:17:43;;;;;;;23.27;14.00;;;;;;;2.15;73.05;102329.84;5030788;28;20046;-74
2022/01/02 06:20:10;;;;;;;22.80;15.05;;;;;;;2.10;73.55;102330.69;5030360;28;20045;-67
2022/01/02 06:22:36;;;;;;;29.27;15.43;;;;;;;2.09;73.25;102330.69;5030450;28;20492;-73
2022/01/02 06:25:03;;;;;;;21.45;14.48;;;;;;;2.05;73.80;102328.94;5030004;28;20455;-73
2022/01/02 06:27:30;;;;;;;32.60;15.77;;;;;;;2.21;73.14;102329.84;5030478;28;20483;-74
2022/01/02 06:29:56;;;;;;;24.52;15.57;;;;;;;2.15;73.58;102322.94;5029340;28;20041;-74
2022/01/02 06:32:23;;;;;;;29.92;17.67;;;;;;;2.14;73.31;102313.44;5030543;28;20107;-73
2022/01/02 06:34:50;;;;;;;25.35;15.80;;;;;;;2.20;73.34;102310.88;5029798;28;20492;-73
2022/01/02 06:37:16;;;;;;;21.95;15.98;;;;;;;2.24;73.30;102316.94;5028452;28;20061;-67
2022/01/02 06:39:43;;;;;;;32.97;16.95;;;;;;;2.18;73.24;102316.91;5027727;28;20111;-72
2022/01/02 06:42:09;;;;;;;24.08;15.52;;;;;;;2.22;73.24;102319.53;5028437;28;20049;-68
2022/01/02 06:44:36;;;;;;;29.95;17.48;;;;;;;2.18;73.29;102314.31;5027243;28;20088;-67
2022/01/02 06:47:03;;;;;;;23.83;15.85;;;;;;;2.22;73.78;102321.22;5028642;28;20087;-73
2022/01/02 06:49:29;;;;;;;26.23;17.63;;;;;;;2.31;73.24;102300.56;5029377;28;20042;-74
2022/01/02 06:51:56;;;;;;;26.60;17.25;;;;;;;2.31;73.11;102294.50;5029323;28;20495;-72
2022/01/02 06:54:22;;;;;;;29.17;18.00;;;;;;;2.34;73.10;102297.97;5029590;28;20491;-73
2022/01/02 06:56:49;;;;;;;32.13;16.85;;;;;;;2.37;73.21;102313.50;5029489;28;20049;-73
2022/01/02 06:59:17;;;;;;;28.75;16.88;;;;;;;2.40;72.94;102317.84;5029293;28;20095;-68
2022/01/02 07:01:44;;;;;;;28.42;15.82;;;;;;;2.39;72.90;102321.31;5026023;28;20045;-67
2022/01/02 07:04:11;;;;;;;31.85;16.48;;;;;;;2.35;72.98;102324.72;5029873;28;20459;-74
2022/01/02 07:06:38;;;;;;;24.88;16.45;;;;;;;2.37;73.05;102329.06;5029515;28;20041;-67
2022/01/02 07:09:05;;;;;;;31.13;17.25;;;;;;;2.37;73.11;102341.16;5029146;28;20049;-74
2022/01/02 07:11:31;;;;;;;27.23;17.67;;;;;;;2.28;73.89;102347.16;5029660;28;20042;-68
2022/01/02 07:13:58;;;;;;;33.55;18.35;;;;;;;2.34;73.25;102352.38;5029816;28;20076;-70
2022/01/02 07:16:24;;;;;;;26.83;17.65;;;;;;;2.34;73.61;102352.38;5028727;28;20514;-67
2022/01/02 07:18:51;;;;;;;33.55;17.25;;;;;;;2.27;73.50;102345.44;5029289;28;20085;-74
2022/01/02 07:21:18;;;;;;;31.25;17.55;;;;;;;2.33;73.29;102337.69;5029085;28;20103;-71
2022/01/02 07:23:45;;;;;;;23.27;17.83;;;;;;;2.37;73.47;102339.41;5029164;28;20119;-68
2022/01/02 07:26:11;;;;;;;22.65;16.60;;;;;;;2.38;73.45;102338.56;5029140;28;20080;-70
2022/01/02 07:28:38;;;;;;;26.52;18.35;;;;;;;2.38;73.21;102337.72;5029300;28;20046;-72
2022/01/02 07:31:04;;;;;;;26.33;18.27;;;;;;;2.40;73.45;102333.38;5028105;28;20057;-73
2022/01/02 07:33:31;;;;;;;34.38;18.98;;;;;;;2.40;73.13;102339.44;5029427;28;20095;-72
2022/01/02 07:35:58;;;;;;;24.02;17.42;;;;;;;2.38;73.54;102333.38;5029293;28;20046;-74
2022/01/02 07:38:31;;;;;;;23.88;18.30;;;;;;;2.45;73.13;102329.06;5028707;28;20049;-67
2022/01/02 07:40:57;;;;;;;23.63;17.45;;;;;;;2.50;73.03;102317.03;5028909;28;20156;-73
2022/01/02 07:43:24;;;;;;;26.17;18.15;;;;;;;2.49;72.89;102314.41;5029214;28;20480;-67
2022/01/02 07:45:51;;;;;;;35.42;19.35;;;;;;;2.45;72.95;102319.59;5029084;28;20462;-73
2022/01/02 07:48:18;;;;;;;28.05;19.35;;;;;;;2.44;73.23;102332.56;5027444;28;20124;-72
2022/01/02 07:50:44;;;;;;;28.63;19.60;;;;;;;2.42;73.35;102318.72;5028654;28;20084;-74
2022/01/02 07:53:11;;;;;;;29.02;20.60;;;;;;;2.50;72.97;102319.63;5028898;28;20095;-73
2022/01/02 07:55:37;;;;;;;29.27;19.48;;;;;;;2.53;72.96;102311.84;5028752;28;20053;-73
2022/01/02 07:58:04;;;;;;;26.25;18.77;;;;;;;2.49;73.36;102310.09;5028700;28;20881;-73
2022/01/02 08:00:30;;;;;;;23.17;17.23;;;;;;;2.53;73.21;102306.66;5028640;28;20393;-67
2022/01/02 08:02:57;;;;;;;33.55;18.77;;;;;;;2.57;72.98;102321.34;5028689;28;20470;-67
2022/01/02 08:05:24;;;;;;;24.67;17.95;;;;;;;2.59;72.91;102306.66;5027535;28;20458;-72
2022/01/02 08:07:51;;;;;;;26.15;19.23;;;;;;;2.61;73.05;102306.66;5028338;28;20099;-72
2022/01/02 08:10:17;;;;;;;25.85;18.42;;;;;;;2.67;73.07;102323.97;5028730;28;20053;-74
2022/01/02 08:12:44;;;;;;;28.05;18.08;;;;;;;2.72;72.63;102327.44;5028616;28;20522;-73
2022/01/02 08:15:11;;;;;;;26.08;18.60;;;;;;;2.77;72.65;102328.31;5028039;28;20045;-74
2022/01/02 08:17:38;;;;;;;27.02;17.70;;;;;;;2.68;72.85;102330.84;5027956;28;20072;-74
2022/01/02 08:20:05;;;;;;;25.10;17.88;;;;;;;2.68;72.85;102331.75;5027318;28;20115;-71
2022/01/02 08:22:31;;;;;;;24.15;17.60;;;;;;;2.72;72.66;102333.47;5027850;28;20491;-73
2022/01/02 08:24:58;;;;;;;22.80;17.10;;;;;;;2.74;72.65;102330.88;5028221;28;20045;-74
2022/01/02 08:27:25;;;;;;;23.98;18.42;;;;;;;2.76;72.53;102318.78;5028117;28;20038;-70
2022/01/02 08:29:51;;;;;;;24.35;18.08;;;;;;;2.77;72.55;102321.38;5027982;28;20064;-73
2022/01/02 08:32:18;;;;;;;30.60;18.30;;;;;;;2.75;72.51;102319.66;5027617;28;20096;-68
2022/01/02 08:34:50;;;;;;;27.48;19.45;;;;;;;2.77;72.55;102321.38;5027786;28;20046;-73
2022/01/02 08:37:17;;;;;;;30.50;19.73;;;;;;;2.81;72.56;102311.88;5026969;28;20416;-73
2022/01/02 08:39:45;;;;;;;27.33;19.30;;;;;;;2.84;72.59;102323.97;5027973;28;20049;-72
2022/01/02 08:42:12;;;;;;;30.85;19.52;;;;;;;2.86;72.57;102322.28;5028376;28;20045;-68
2022/01/02 08:44:41;;;;;;;27.40;18.48;;;;;;;2.78;72.75;102333.47;5027785;28;20045;-68
2022/01/02 08:47:08;;;;;;;28.48;18.25;;;;;;;2.81;72.70;102327.44;5015889;28;20119;-72
2022/01/02 08:49:35;;;;;;;29.17;19.00;;;;;;;2.81;72.59;102330.03;5026744;28;20052;-73
2022/01/02 08:52:02;;;;;;;23.83;17.77;;;;;;;2.76;73.03;102332.59;5027768;28;20499;-67
2022/01/02 08:54:28;;;;;;;28.40;18.08;;;;;;;2.72;72.77;102332.63;5027394;28;20041;-71
2022/01/02 08:56:55;;;;;;;27.48;18.98;;;;;;;2.71;72.81;102331.72;5028024;28;20630;-67
2022/01/02 08:59:27;;;;;;;25.08;19.52;;;;;;;2.74;72.88;102336.94;5029122;28;20056;-73
2022/01/02 09:01:55;;;;;;;26.73;18.13;;;;;;;2.79;72.73;102336.94;5031769;28;20085;-67
2022/01/02 09:04:22;;;;;;;29.65;19.00;;;;;;;2.67;73.06;102342.97;5031901;28;20100;-73
2022/01/02 09:06:49;;;;;;;25.27;18.58;;;;;;;2.73;72.94;102345.56;5031676;28;20069;-73
2022/01/02 09:09:15;;;;;;;29.85;19.67;;;;;;;2.81;72.90;102342.13;5030930;28;20104;-73
2022/01/02 09:11:42;;;;;;;48.42;35.25;;;;;;;2.89;72.90;102348.19;5031579;28;20084;-73
2022/01/02 09:14:09;;;;;;;52.45;38.53;;;;;;;2.94;72.67;102349.91;5031594;28;20049;-73
2022/01/02 09:16:35;;;;;;;36.78;25.95;;;;;;;3.00;72.48;102330.06;5031574;28;20053;-68
2022/01/02 09:19:02;;;;;;;29.33;21.00;;;;;;;3.07;72.46;102332.66;5031722;28;20049;-73
2022/01/02 09:21:29;;;;;;;73.70;48.70;;;;;;;3.00;72.58;102338.69;5031387;28;20049;-68
2022/01/02 09:23:55;;;;;;;50.97;34.30;;;;;;;3.03;72.86;102343.00;5031633;28;20103;-74
2022/01/02 09:26:22;;;;;;;38.00;28.75;;;;;;;2.98;72.97;102347.34;5031570;28;20073;-67
2022/01/02 09:28:49;;;;;;;38.75;27.25;;;;;;;2.96;72.91;102344.75;5029797;28;20103;-68
2022/01/02 09:31:15;;;;;;;31.30;22.08;;;;;;;3.01;72.88;102340.44;5031374;28;20077;-73
2022/01/02 09:33:42;;;;;;;33.53;21.40;;;;;;;3.11;72.78;102349.06;5031318;28;20487;-66
2022/01/02 09:36:08;;;;;;;34.17;21.42;;;;;;;3.43;72.75;102343.03;5031024;28;20103;-72
2022/01/02 09:38:35;;;;;;;37.08;22.85;;;;;;;3.34;72.25;102343.91;5030812;28;20057;-72
2022/01/02 09:41:02;;;;;;;38.38;25.10;;;;;;;3.36;72.39;102351.66;5031052;28;20124;-69
2022/01/02 09:43:28;;;;;;;105.72;55.65;;;;;;;3.27;72.58;102340.41;5031658;28;20107;-72
2022/01/02 09:45:55;;;;;;;41.05;27.15;;;;;;;3.22;72.82;102352.53;5020629;28;20442;-74
2022/01/02 09:48:23;;;;;;;264.40;106.70;;;;;;;3.19;72.86;102346.50;5030742;28;20504;-67
2022/01/02 09:50:50;;;;;;;60.35;33.03;;;;;;;3.32;72.91;102345.63;5030992;28;20523;-72
2022/01/02 09:53:17;;;;;;;31.75;23.65;;;;;;;3.38;72.51;102342.16;5030686;28;20041;-72
2022/01/02 09:55:43;;;;;;;32.15;22.80;;;;;;;3.39;72.42;102325.69;5030932;28;20052;-71
2022/01/02 09:58:12;;;;;;;44.30;28.00;;;;;;;3.29;72.59;102326.59;5030754;28;20050;-71
2022/01/02 10:00:40;;;;;;;37.83;27.38;;;;;;;3.33;72.82;102324.00;5030310;28;20060;-68
2022/01/02 10:03:12;;;;;;;31.90;22.27;;;;;;;3.35;72.83;102316.19;5029242;28;20055;-66
2022/01/02 10:05:59;;;;;;;31.80;23.20;;;;;;;3.40;72.49;102309.28;5027651;28;20072;-66
2022/01/02 10:08:26;;;;;;;31.08;22.90;;;;;;;3.41;72.67;102309.25;5026621;28;20050;-72
2022/01/02 10:11:00;;;;;;;28.95;21.05;;;;;;;3.45;72.48;102306.69;5028660;28;20057;-68
2022/01/02 10:13:52;;;;;;;44.35;30.80;;;;;;;3.48;72.39;102304.94;5030646;28;20041;-72
2022/01/02 10:16:30;;;;;;;36.35;24.48;;;;;;;3.55;72.39;102311.84;5030224;28;20045;-65
2022/01/02 10:18:58;;;;;;;34.67;21.85;;;;;;;3.53;72.52;102311.00;5030147;28;20042;-69
2022/01/02 10:21:39;;;;;;;33.35;23.85;;;;;;;3.60;72.48;102304.06;5030546;28;20055;-72
2022/01/02 10:24:21;;;;;;;28.27;20.88;;;;;;;3.60;72.32;102306.66;5027783;28;20107;-72
2022/01/02 10:27:12;;;;;;;33.90;23.80;;;;;;;3.66;72.38;102306.63;5030323;28;20050;-67
2022/01/02 10:29:39;;;;;;;32.80;22.10;;;;;;;3.54;72.76;102306.66;5030169;28;20046;-70
2022/01/02 10:32:30;;;;;;;53.25;34.78;;;;;;;3.54;72.76;102310.13;5029582;28;20045;-71
2022/01/02 10:35:15;;;;;;;31.38;21.35;;;;;;;3.55;72.74;102313.59;5028911;28;20053;-72
2022/01/02 10:37:46;;;;;;;45.03;29.55;;;;;;;3.57;73.01;102307.53;5029371;28;20389;-69
2022/01/02 10:40:33;;;;;;;42.80;27.67;;;;;;;3.55;73.07;102301.47;5028590;28;20041;-73
2022/01/02 10:43:05;;;;;;;45.22;25.70;;;;;;;3.62;72.81;102293.66;5029716;28;20136;-69
2022/01/02 10:45:37;;;;;;;38.88;26.08;;;;;;;3.70;72.86;102289.31;5029438;28;20053;-71
2022/01/02 10:48:07;;;;;;;46.22;28.38;;;;;;;3.64;73.04;102291.94;5029753;28;20049;-72
2022/01/02 10:50:35;;;;;;;39.28;25.00;;;;;;;3.69;73.00;102282.41;5029821;28;20053;-68
2022/01/02 10:53:16;;;;;;;30.33;21.77;;;;;;;3.75;73.33;102288.44;5029491;28;20049;-70
2022/01/02 10:55:46;;;;;;;40.30;25.92;;;;;;;3.79;72.86;102284.09;5018715;28;20053;-69
2022/01/02 10:58:13;;;;;;;87.53;47.47;;;;;;;3.78;72.93;102282.38;5029273;28;20050;-69
2022/01/02 11:00:40;;;;;;;37.25;25.77;;;;;;;3.84;73.01;102269.34;5028228;28;20080;-70
2022/01/02 11:03:07;;;;;;;36.95;26.23;;;;;;;3.90;72.93;102264.16;5028100;28;20092;-69
2022/01/02 11:05:36;;;;;;;37.13;26.02;;;;;;;3.93;72.85;102255.47;5029443;28;20500;-69
2022/01/02 11:08:05;;;;;;;32.65;22.65;;;;;;;4.00;73.07;102245.91;5029231;28;20500;-69
2022/01/02 11:10:33;;;;;;;34.35;23.67;;;;;;;4.02;72.97;102244.19;5029242;28;20050;-68
2022/01/02 11:13:00;;;;;;;31.13;22.13;;;;;;;4.04;72.80;102242.47;5029112;28;20038;-69
2022/01/02 11:15:28;;;;;;;39.05;24.15;;;;;;;4.04;73.06;102243.31;5029101;28;20041;-69
2022/01/02 11:17:55;;;;;;;31.67;22.60;;;;;;;4.05;73.06;102247.63;5029734;28;20414;-69
2022/01/02 11:20:26;;;;;;;36.72;25.15;;;;;;;4.08;72.92;102242.41;5028308;28;20092;-69
2022/01/02 11:22:59;;;;;;;70.30;39.97;;;;;;;4.02;73.39;102236.41;5029281;28;20045;-71
2022/01/02 11:25:50;;;;;;;42.22;27.63;;;;;;;4.11;73.10;102238.94;5023723;28;20069;-70
2022/01/02 11:28:26;;;;;;;50.70;30.48;;;;;;;4.17;73.14;102233.72;5017295;28;20446;-71